Tuvalu — DC8992 — position and weather

sailwx.info

Track history (hours):
 
Tides and Currents Weather Stations Pressure Air Temp Water Temp Dewpoint Dewpoint Depression Visibility Wind Speed Wind Dir Waves Ship Positions

Tuvalu

Last reported at 2017-Sep-18 17:27 UTC. Time now 2017-Sep-19 13:25 UTC.
Position N 37°07' W 008°37'.

Length 11 m.

Type: Sailing vessel. MMSI: 211725990.

Date/timePositionNaut miles runAvg speedWind from/ knotsBaromVisibWave heightAir tempDewpointWater temp
2017-Sep-18 17:27N 37°07' W 008°37'1 1.8
2017-Sep-18 17:01N 37°07' W 008°37'2 4.1
2017-Sep-18 16:31N 37°06' W 008°40'1 0.3
2017-Sep-18 14:23N 37°06' W 008°40'1 3.5
2017-Sep-18 14:00N 37°06' W 008°39'2 4.4
2017-Sep-18 13:30N 37°08' W 008°37'0 0.0
2017-Sep-17 18:01N 37°08' W 008°36'0 5.8
2017-Sep-17 18:00N 37°08' W 008°36'1 0.9
2017-Sep-17 17:04N 37°07' W 008°37'0 0.0
2017-Sep-17 16:52N 37°07' W 008°37'0 0.0
2017-Sep-17 16:22N 37°07' W 008°37'1 2.2
2017-Sep-17 16:00N 37°07' W 008°37'2 3.9
2017-Sep-17 15:30N 37°05' W 008°36'2 4.0
2017-Sep-17 15:00N 37°03' W 008°36'1 1.4
2017-Sep-17 14:30N 37°03' W 008°35'1 2.1
2017-Sep-17 14:00N 37°02' W 008°34'1 1.1
2017-Sep-17 13:30N 37°03' W 008°34'2 4.4
2017-Sep-17 13:00N 37°05' W 008°36'2 4.4
2017-Sep-17 12:31N 37°06' W 008°37'1 1.6
2017-Sep-17 12:00N 37°07' W 008°37'  
2017-Sep-14 18:57N 37°08' W 008°36'0 0.0
2017-Sep-14 17:51N 37°08' W 008°36'1 1.9
2017-Sep-14 17:23N 37°07' W 008°37'0 0.0
2017-Sep-14 16:59N 37°07' W 008°37'0 0.0
2017-Sep-14 16:30N 37°07' W 008°37'0 0.0
2017-Sep-14 15:59N 37°07' W 008°37'0 0.0
2017-Sep-14 15:28N 37°07' W 008°37'0 0.0
2017-Sep-14 14:58N 37°07' W 008°37'0 0.0
2017-Sep-14 13:55N 37°07' W 008°37'1 2.5
2017-Sep-14 13:30N 37°06' W 008°37'2 4.0
2017-Sep-14 13:00N 37°05' W 008°39'2 3.3
2017-Sep-14 12:30N 37°04' W 008°41'1 1.7
2017-Sep-14 11:56N 37°05' W 008°40'0 0.0
2017-Sep-14 11:26N 37°05' W 008°40'0 0.0
2017-Sep-14 11:00N 37°05' W 008°40'3 5.3
2017-Sep-14 10:31N 37°07' W 008°38'2 0.1
2017-Sep-13 19:01N 37°08' W 008°36'0 0.1
2017-Sep-13 17:37N 37°08' W 008°36'1 5.2
2017-Sep-13 17:30N 37°08' W 008°37'0 0.1
2017-Sep-13 14:18N 37°07' W 008°37'0 0.0
2017-Sep-13 12:40N 37°08' W 008°37'0 0.0
2017-Sep-13 12:25N 37°08' W 008°37'0 0.0
2017-Sep-13 11:57N 37°07' W 008°37'1 0.0
2017-Sep-12 09:19N 37°08' W 008°36'0 0.0
2017-Sep-12 08:55N 37°08' W 008°36'0 0.5
2017-Sep-12 08:30N 37°08' W 008°36'2 4.2
2017-Sep-12 08:00N 37°06' W 008°38'  
2017-Sep-09 18:39N 37°07' W 008°40'0 0.0
2017-Sep-09 18:27N 37°07' W 008°40'0 0.0
2017-Sep-09 17:57N 37°07' W 008°40'0 0.0
2017-Sep-09 17:21N 37°07' W 008°40'0 0.0
2017-Sep-09 16:54N 37°07' W 008°40'0 0.0
2017-Sep-09 16:18N 37°07' W 008°40'0 0.0
2017-Sep-09 16:00N 37°07' W 008°40'0 0.0
2017-Sep-09 15:27N 37°07' W 008°40'0 0.0
2017-Sep-09 15:00N 37°07' W 008°40'  
Track history (hours):
 
Tides and Currents Weather Stations Pressure Air Temp Water Temp Dewpoint Dewpoint Depression Visibility Wind Speed Wind Dir Waves Ship Positions

Tuvalu

Last reported at 2017-Sep-18 17:27 UTC. Time now 2017-Sep-19 13:25 UTC.
Position N 37°07' W 008°37'.

Length 11 m.

Type: Sailing vessel. MMSI: 211725990.

Date/timePositionNaut miles runAvg speedWind from/ knotsBaromVisibWave heightAir tempDewpointWater temp
2017-Sep-18 17:27N 37°07' W 008°37'1 1.8
2017-Sep-18 17:01N 37°07' W 008°37'2 4.1
2017-Sep-18 16:31N 37°06' W 008°40'1 0.3
2017-Sep-18 14:23N 37°06' W 008°40'1 3.5
2017-Sep-18 14:00N 37°06' W 008°39'2 4.4
2017-Sep-18 13:30N 37°08' W 008°37'0 0.0
2017-Sep-17 18:01N 37°08' W 008°36'0 5.8
2017-Sep-17 18:00N 37°08' W 008°36'1 0.9
2017-Sep-17 17:04N 37°07' W 008°37'0 0.0
2017-Sep-17 16:52N 37°07' W 008°37'0 0.0
2017-Sep-17 16:22N 37°07' W 008°37'1 2.2
2017-Sep-17 16:00N 37°07' W 008°37'2 3.9
2017-Sep-17 15:30N 37°05' W 008°36'2 4.0
2017-Sep-17 15:00N 37°03' W 008°36'1 1.4
2017-Sep-17 14:30N 37°03' W 008°35'1 2.1
2017-Sep-17 14:00N 37°02' W 008°34'1 1.1
2017-Sep-17 13:30N 37°03' W 008°34'2 4.4
2017-Sep-17 13:00N 37°05' W 008°36'2 4.4
2017-Sep-17 12:31N 37°06' W 008°37'1 1.6
2017-Sep-17 12:00N 37°07' W 008°37'  
2017-Sep-14 18:57N 37°08' W 008°36'0 0.0
2017-Sep-14 17:51N 37°08' W 008°36'1 1.9
2017-Sep-14 17:23N 37°07' W 008°37'0 0.0
2017-Sep-14 16:59N 37°07' W 008°37'0 0.0
2017-Sep-14 16:30N 37°07' W 008°37'0 0.0
2017-Sep-14 15:59N 37°07' W 008°37'0 0.0
2017-Sep-14 15:28N 37°07' W 008°37'0 0.0
2017-Sep-14 14:58N 37°07' W 008°37'0 0.0
2017-Sep-14 13:55N 37°07' W 008°37'1 2.5
2017-Sep-14 13:30N 37°06' W 008°37'2 4.0
2017-Sep-14 13:00N 37°05' W 008°39'2 3.3
2017-Sep-14 12:30N 37°04' W 008°41'1 1.7
2017-Sep-14 11:56N 37°05' W 008°40'0 0.0
2017-Sep-14 11:26N 37°05' W 008°40'0 0.0
2017-Sep-14 11:00N 37°05' W 008°40'3 5.3
2017-Sep-14 10:31N 37°07' W 008°38'2 0.1
2017-Sep-13 19:01N 37°08' W 008°36'0 0.1
2017-Sep-13 17:37N 37°08' W 008°36'1 5.2
2017-Sep-13 17:30N 37°08' W 008°37'0 0.1
2017-Sep-13 14:18N 37°07' W 008°37'0 0.0
2017-Sep-13 12:40N 37°08' W 008°37'0 0.0
2017-Sep-13 12:25N 37°08' W 008°37'0 0.0
2017-Sep-13 11:57N 37°07' W 008°37'1 0.0
2017-Sep-12 09:19N 37°08' W 008°36'0 0.0
2017-Sep-12 08:55N 37°08' W 008°36'0 0.5
2017-Sep-12 08:30N 37°08' W 008°36'2 4.2
2017-Sep-12 08:00N 37°06' W 008°38'  
2017-Sep-09 18:39N 37°07' W 008°40'0 0.0
2017-Sep-09 18:27N 37°07' W 008°40'0 0.0
2017-Sep-09 17:57N 37°07' W 008°40'0 0.0
2017-Sep-09 17:21N 37°07' W 008°40'0 0.0
2017-Sep-09 16:54N 37°07' W 008°40'0 0.0
2017-Sep-09 16:18N 37°07' W 008°40'0 0.0
2017-Sep-09 16:00N 37°07' W 008°40'0 0.0
2017-Sep-09 15:27N 37°07' W 008°40'0 0.0
2017-Sep-09 15:00N 37°07' W 008°40'  

Dump ship's entire track history